Flight Track Log - Related Links

Times and Time Zones

All times are in EDT time to prevent confusion due to time zone crossing. See the N721CT flight status page for this flight to view local times or setup timezone preferences in your user account.

Time Position Orientation Groundspeed Altitude Reporting Facility
EDT Latitude Longitude Course Direction KTS MPH feet Rate Location/Type
Tue 09:06:07 AM 36.0253 -95.9861 212° Southwest 89 102 1,200  Level Kansas City Center
Tue 09:06:25 AM 36.0214 -95.9892 212° Southwest 77 89 1,400 759 Climbing Kansas City Center
Tue 09:07:26 AM 36.0044 -95.9864 172° South 64 74 2,200 716 Climbing Kansas City Center
Tue 09:08:14 AM 35.9933 -95.9783 150° Southeast 66 76 2,700 655 Climbing Kansas City Center
Tue 09:09:16 AM 35.9767 -95.9650 147° Southeast 68 78 3,400 726 Climbing Kansas City Center
Tue 09:10:18 AM 35.9553 -95.9489 149° Southeast 73 84 4,200 677 Climbing Kansas City Center
Tue 09:11:20 AM 35.9378 -95.9339 145° Southeast 76 87 4,800 585 Climbing Kansas City Center
Tue 09:12:21 AM 35.9192 -95.9203 149° Southeast 77 89 5,400 537 Climbing Kansas City Center
Tue 09:13:23 AM 35.8981 -95.9056 151° Southeast 82 94 5,900 290 Climbing Kansas City Center
Tue 09:14:25 AM 35.8747 -95.8878 148° Southeast 91 105 6,000  Climbing Kansas City Center
Tue 09:15:31 AM 35.8386 -95.8633 151° Southeast 122 140 5,900  Descending Kansas City Center
Tue 09:16:28 AM 35.8172 -95.8467 148° Southeast 112 129 6,000  Climbing Kansas City Center
Tue 09:17:30 AM 35.7825 -95.8217 150° Southeast 118 136 5,900  Descending Kansas City Center
Tue 09:18:31 AM 35.7547 -95.8011 149° Southeast 118 136 6,000 49 Climbing Kansas City Center
Tue 09:19:33 AM 35.7267 -95.7789 147° Southeast 118 136 6,000  Level Kansas City Center
Tue 09:20:35 AM 35.6975 -95.7581 150° Southeast 120 138 6,000  Level Kansas City Center
Tue 09:21:37 AM 35.6658 -95.7553 176° South 117 135 6,000  Level Kansas City Center
Tue 09:22:38 AM 35.6333 -95.7583 184° South 118 136 6,000  Level Kansas City Center
Tue 09:23:40 AM 35.6000 -95.7564 177° South 119 137 6,000  Level Kansas City Center
Tue 09:24:42 AM 35.5664 -95.7539 177° South 120 138 6,000  Level Kansas City Center
Tue 09:25:43 AM 35.5275 -95.7547 181° South 117 135 6,000  Level Kansas City Center
Tue 09:26:45 AM 35.4933 -95.7572 183° South 120 138 6,000 -47 Level Kansas City Center
Tue 09:27:51 AM 35.4619 -95.7569 180° South 122 140 5,900  Descending Fort Worth Center
Tue 09:28:51 AM 35.4286 -95.7578 181° South 122 140 6,000 50 Climbing Fort Worth Center
Tue 09:29:51 AM 35.3953 -95.7583 181° South 122 140 6,000  Level Fort Worth Center
Tue 09:30:51 AM 35.3642 -95.7589 181° South 122 140 6,000  Level Fort Worth Center
Tue 09:31:51 AM 35.3308 -95.7594 181° South 122 140 6,000  Level Fort Worth Center
Tue 09:32:51 AM 35.2994 -95.7653 189° South 122 140 6,000  Level Fort Worth Center
Tue 09:33:51 AM 35.2661 -95.7633 177° South 122 140 6,000  Level Fort Worth Center
Tue 09:34:51 AM 35.2347 -95.7664 185° South 122 140 6,000  Level Fort Worth Center
Tue 09:35:51 AM 35.2014 -95.7647 178° South 122 140 6,000  Level Fort Worth Center
Tue 09:36:51 AM 35.1681 -95.7678 184° South 122 140 6,000  Level Fort Worth Center
Tue 09:37:51 AM 35.1369 -95.7711 185° South 122 140 6,000  Level Fort Worth Center
Tue 09:38:51 AM 35.1056 -95.7639 169° South 122 140 6,000  Level Fort Worth Center
Tue 09:39:51 AM 35.0722 -95.7722 192° South 122 140 6,000  Level Fort Worth Center
Tue 09:40:51 AM 35.0408 -95.7728 181° South 122 140 6,000  Level Fort Worth Center
Tue 09:41:51 AM 35.0097 -95.7761 185° South 122 140 6,000  Level Fort Worth Center
Tue 09:42:51 AM 34.9722 -95.7767 181° South 122 140 6,000  Level Fort Worth Center
Tue 09:43:51 AM 34.9408 -95.7772 181° South 122 140 6,000  Level Fort Worth Center
Tue 09:44:51 AM 34.9097 -95.7831 189° South 122 140 6,000  Level Fort Worth Center
Tue 09:45:51 AM 34.8700 -95.7861 184° South 130 150 6,000  Level Fort Worth Center
Tue 09:46:51 AM 34.8408 -95.7867 181° South 130 150 6,000  Level Fort Worth Center
Tue 09:47:51 AM 34.8097 -95.7975 196° South 120 138 6,000  Level Fort Worth Center
Tue 09:48:51 AM 34.7786 -95.8133 203° Southwest 120 138 6,000  Level Fort Worth Center
Tue 09:49:51 AM 34.7497 -95.8367 214° Southwest 125 144 6,000  Level Fort Worth Center
Tue 09:50:51 AM 34.7186 -95.8522 202° Southwest 119 137 6,000  Level Fort Worth Center
Tue 09:51:51 AM 34.6958 -95.8628 201° Southwest 113 130 6,000  Level Fort Worth Center
Tue 09:52:51 AM 34.6669 -95.8836 211° Southwest 113 130 6,000  Level Fort Worth Center
Tue 09:53:51 AM 34.6378 -95.8967 200° South 113 130 6,000  Level Fort Worth Center
Tue 09:54:51 AM 34.6108 -95.9147 209° Southwest 118 136 6,000  Level Fort Worth Center
Tue 09:55:51 AM 34.5797 -95.9281 199° South 118 136 6,000  Level Fort Worth Center
Tue 09:56:51 AM 34.5489 -95.9486 209° Southwest 113 130 6,000  Level Fort Worth Center
Tue 09:57:51 AM 34.5156 -95.9744 213° Southwest 126 145 6,000  Level Fort Worth Center
Tue 09:58:51 AM 34.4844 -95.9900 202° Southwest 120 138 6,000 50 Level Fort Worth Center
Tue 09:59:51 AM 34.4556 -96.0081 207° Southwest 129 148 6,100 50 Climbing Fort Worth Center
Tue 10:00:51 AM 34.4286 -96.0186 198° South 119 137 6,100  Level Fort Worth Center
Tue 10:01:51 AM 34.4017 -96.0417 215° Southwest 114 131 6,100  Level Fort Worth Center
Tue 10:02:51 AM 34.3706 -96.0600 206° Southwest 114 131 6,100  Level Fort Worth Center
Tue 10:03:51 AM 34.3394 -96.0781 206° Southwest 114 131 6,100  Level Fort Worth Center
Tue 10:04:52 AM 34.3064 -96.1036 213° Southwest 121 139 6,100  Level Fort Worth Center
Tue 10:05:51 AM 34.2814 -96.1117 195° South 121 139 6,100  Level Fort Worth Center
Tue 10:06:51 AM 34.2461 -96.1347 208° Southwest 126 145 6,100  Level Fort Worth Center
Tue 10:07:51 AM 34.2233 -96.1525 213° Southwest 121 139 6,100  Level Fort Worth Center
Tue 10:08:51 AM 34.1903 -96.1681 201° Southwest 116 133 6,100  Level Fort Worth Center
Tue 10:09:51 AM 34.1611 -96.1861 207° Southwest 115 132 6,100  Level Fort Worth Center
Tue 10:10:51 AM 34.1300 -96.2067 209° Southwest 123 142 6,100  Level Fort Worth Center
Tue 10:11:51 AM 34.1072 -96.2194 205° Southwest 113 130 6,100 -50 Level Fort Worth Center
Tue 10:12:51 AM 34.0697 -96.2350 199° South 113 130 6,000 -50 Descending Fort Worth Center
Tue 10:13:51 AM 34.0408 -96.2581 213° Southwest 118 136 6,000  Level Fort Worth Center
Tue 10:14:51 AM 34.0117 -96.2758 207° Southwest 118 136 6,000  Level Fort Worth Center
Tue 10:15:51 AM 33.9825 -96.2839 193° South 113 130 6,000  Level Fort Worth Center
Tue 10:16:51 AM 33.9514 -96.3067 211° Southwest 113 130 6,000  Level Fort Worth Center
Tue 10:17:51 AM 33.9225 -96.3247 207° Southwest 118 136 6,000  Level Fort Worth Center
Tue 10:18:51 AM 33.8933 -96.3425 207° Southwest 118 136 6,000  Level Fort Worth Center
Tue 10:19:51 AM 33.8683 -96.3553 203° Southwest 113 130 6,000  Level Fort Worth Center
Tue 10:20:51 AM 33.8414 -96.3756 212° Southwest 113 130 6,000  Level Fort Worth Center
Tue 10:21:51 AM 33.8164 -96.3883 203° Southwest 113 130 6,000  Level Fort Worth Center
Tue 10:22:51 AM 33.7853 -96.4039 203° Southwest 113 130 6,000  Level Fort Worth Center
Tue 10:23:51 AM 33.7583 -96.4167 202° Southwest 113 130 6,000  Level Fort Worth Center
Tue 10:24:51 AM 33.7272 -96.4344 205° Southwest 113 130 6,000  Level Fort Worth Center
Tue 10:25:52 AM 33.7022 -96.4497 207° Southwest 113 130 6,000  Level Fort Worth Center
Tue 10:26:51 AM 33.6731 -96.4700 210° Southwest 118 136 6,000  Level Fort Worth Center
Tue 10:27:51 AM 33.6483 -96.4853 207° Southwest 118 136 6,000  Level Fort Worth Center
Tue 10:28:51 AM 33.6169 -96.5056 208° Southwest 118 136 6,000  Level Fort Worth Center
Tue 10:29:51 AM 33.5900 -96.5183 202° Southwest 111 128 6,000  Level Fort Worth Center
Tue 10:30:51 AM 33.5589 -96.5361 205° Southwest 111 128 6,000  Level Fort Worth Center
Tue 10:31:51 AM 33.5339 -96.5486 203° Southwest 111 128 6,000  Level Fort Worth Center
Tue 10:32:51 AM 33.5006 -96.5689 207° Southwest 111 128 6,000  Level Fort Worth Center
Tue 10:33:51 AM 33.4714 -96.5842 204° Southwest 111 128 6,000  Level Fort Worth Center
Tue 10:34:51 AM 33.4464 -96.5969 203° Southwest 111 128 6,000 -150 Level Fort Worth Center
Tue 10:35:51 AM 33.4194 -96.6269 223° Southwest 116 133 5,700 -550 Descending Fort Worth Center
Tue 10:36:51 AM 33.3989 -96.6497 223° Southwest 122 140 4,900 -850 Descending Fort Worth Center
Tue 10:37:51 AM 33.3656 -96.6747 212° Southwest 127 146 4,000 -450 Descending Fort Worth Center
Tue 10:38:51 AM 33.3428 -96.6850 201° Southwest 113 130 4,000 -99 Level Fort Worth Center
Tue 10:39:52 AM 33.3114 -96.7025 205° Southwest 113 130 3,800 -500 Descending Fort Worth Center
Tue 10:40:51 AM 33.2867 -96.7175 207° Southwest 113 130 3,000 -403 Descending Fort Worth Center
Tue 10:41:51 AM 33.2594 -96.7403 215° Southwest 108 124 3,000  Level Fort Worth Center
Tue 10:42:51 AM 33.2367 -96.7528 205° Southwest 102 117 3,000  Level Fort Worth Center
Tue 10:43:51 AM 33.2094 -96.7703 208° Southwest 102 117 3,000  Level Fort Worth Center
Tue 10:46:06 AM 33.1500 -96.8000 203° Southwest 105 121 3,000  Level Dallas / Fort Worth TRACON
Tue 10:47:11 AM 33.1167 -96.8167 203° Southwest 109 125 3,000 -151 Level Dallas / Fort Worth TRACON
Tue 10:48:05 AM 33.0833 -96.8167 180° South 136 157 2,700 -522 Descending Dallas / Fort Worth TRACON
Tue 10:49:06 AM 33.0500 -96.8333 203° Southwest 134 154 2,000 -347 Descending Dallas / Fort Worth TRACON
Tue 10:50:06 AM 33.0333 -96.8500 220° Southwest 116 133 2,000 -200 Level Dallas / Fort Worth TRACON
Tue 10:51:06 AM 33.0000 -96.8500 180° South 96 110 1,600 -605 Descending Dallas / Fort Worth TRACON
Tue 10:52:05 AM 32.9833 -96.8333 140° Southeast 57 66 800 -814 Descending Dallas / Fort Worth TRACON
Tue 10:54:00 AM 32.9667 -96.8333 164° South  Level FlightAware Approximate

Login

Don't have an account? Register now (free) for customized features, flight alerts, and more!